Time;durP1;ratioP1;P1;durP2;ratioP2;P2;SDS_P1;SDS_P2;PMS_P1;PMS_P2;Temp;Humidity;BMP_temperature;BMP_pressure;BME280_temperature;BME280_humidity;BME280_pressure;Samples;Min_cycle;Max_cycle;Signal;HPM_P1;HPM_P2
2021/05/04 00:02:10;;;;;;;5.07;2.65;;;;;;;;;;5031587;28;20082;-57
2021/05/04 00:04:37;;;;;;;4.03;2.15;;;;;;;;;;5031621;28;20036;-57
2021/05/04 00:07:04;;;;;;;3.60;1.83;;;;;;;;;;5031525;28;20054;-57
2021/05/04 00:09:30;;;;;;;5.05;2.55;;;;;;;;;;5031348;28;20502;-58
2021/05/04 00:11:57;;;;;;;5.95;2.20;;;;;;;;;;5031496;28;20033;-58
2021/05/04 00:14:24;;;;;;;4.40;2.50;;;;;;;;;;5031304;28;20068;-57
2021/05/04 00:16:51;;;;;;;4.13;2.20;;;;;;;;;;5031309;28;20032;-57
2021/05/04 00:19:18;;;;;;;6.22;2.83;;;;;;;;;;5031287;28;20360;-57
2021/05/04 00:21:45;;;;;;;3.23;2.23;;;;;;;;;;5031235;28;20075;-57
2021/05/04 00:24:11;;;;;;;5.07;3.03;;;;;;;;;;5031169;28;20037;-57
2021/05/04 00:26:38;;;;;;;6.67;3.00;;;;;;;;;;5031228;28;20365;-57
2021/05/04 00:29:05;;;;;;;5.50;2.63;;;;;;;;;;5030948;28;20113;-57
2021/05/04 00:31:32;;;;;;;11.60;2.63;;;;;;;;;;5031112;28;20029;-58
2021/05/04 00:33:59;;;;;;;6.23;2.40;;;;;;;;;;5031472;28;20029;-58
2021/05/04 00:36:26;;;;;;;4.90;2.50;;;;;;;;;;5031147;28;20034;-57
2021/05/04 00:38:53;;;;;;;4.87;2.70;;;;;;;;;;5030998;28;20033;-57
2021/05/04 00:41:20;;;;;;;5.20;2.53;;;;;;;;;;5031042;28;20021;-57
2021/05/04 00:43:46;;;;;;;5.70;2.07;;;;;;;;;;5030942;28;20380;-57
2021/05/04 00:46:13;;;;;;;5.00;2.37;;;;;;;;;;5030905;28;20410;-57
2021/05/04 00:48:40;;;;;;;4.97;2.30;;;;;;;;;;5030798;28;20037;-57
2021/05/04 00:51:07;;;;;;;3.90;1.80;;;;;;;;;;5030738;28;20108;-58
2021/05/04 00:53:34;;;;;;;3.33;1.73;;;;;;;;;;5030816;28;20017;-58
2021/05/04 00:56:01;;;;;;;4.53;1.90;;;;;;;;;;5030670;28;20049;-57
2021/05/04 00:58:29;;;;;;;4.07;1.90;;;;;;;;;;5030035;28;20022;-57
2021/05/04 01:00:55;;;;;;;8.17;2.50;;;;;;;;;;5033430;27;20408;-57
2021/05/04 01:03:22;;;;;;;14.80;1.90;;;;;;;;;;5030650;28;20034;-57
2021/05/04 01:05:49;;;;;;;6.97;1.97;;;;;;;;;;5030889;28;20467;-57
2021/05/04 01:08:16;;;;;;;5.57;1.73;;;;;;;;;;5030478;28;20360;-57
2021/05/04 01:10:43;;;;;;;6.73;1.90;;;;;;;;;;5030442;28;20117;-57
2021/05/04 01:13:09;;;;;;;3.80;2.10;;;;;;;;;;5030556;28;20037;-57
2021/05/04 01:15:36;;;;;;;7.13;2.10;;;;;;;;;;5030462;28;20052;-57
2021/05/04 01:18:03;;;;;;;4.77;1.57;;;;;;;;;;5030457;28;20033;-57
2021/05/04 01:20:30;;;;;;;4.67;2.10;;;;;;;;;;5030339;28;20025;-57
2021/05/04 01:22:57;;;;;;;5.37;2.00;;;;;;;;;;5030372;28;20043;-57
2021/05/04 01:25:24;;;;;;;5.63;1.93;;;;;;;;;;5030270;28;20025;-57
2021/05/04 01:27:51;;;;;;;4.17;2.17;;;;;;;;;;5030259;28;20069;-57
2021/05/04 01:30:17;;;;;;;4.70;2.17;;;;;;;;;;5030250;28;20029;-57
2021/05/04 01:32:44;;;;;;;5.63;1.93;;;;;;;;;;5030249;28;20077;-57
2021/05/04 01:35:12;;;;;;;4.37;1.63;;;;;;;;;;5030272;28;20116;-57
2021/05/04 01:37:38;;;;;;;3.77;1.90;;;;;;;;;;5030168;28;20052;-57
2021/05/04 01:40:06;;;;;;;5.00;2.20;;;;;;;;;;5030039;28;20368;-56
2021/05/04 01:42:33;;;;;;;7.63;2.30;;;;;;;;;;5030192;28;20450;-56
2021/05/04 01:45:00;;;;;;;6.43;2.07;;;;;;;;;;5030073;28;20391;-56
2021/05/04 01:47:27;;;;;;;5.20;1.77;;;;;;;;;;5030047;28;20139;-57
2021/05/04 01:49:54;;;;;;;5.03;1.73;;;;;;;;;;5029843;28;20053;-56
2021/05/04 01:52:21;;;;;;;5.93;1.90;;;;;;;;;;5030013;28;20033;-56
2021/05/04 01:54:49;;;;;;;4.33;2.27;;;;;;;;;;5030020;28;20100;-57
2021/05/04 01:57:16;;;;;;;5.53;2.23;;;;;;;;;;5029975;28;20036;-57
2021/05/04 01:59:43;;;;;;;5.93;2.50;;;;;;;;;;5032519;27;20045;-57
2021/05/04 02:02:10;;;;;;;5.13;2.03;;;;;;;;;;5029881;28;20041;-57
2021/05/04 02:04:37;;;;;;;5.67;2.03;;;;;;;;;;5029929;28;20108;-57
2021/05/04 02:07:04;;;;;;;9.23;1.77;;;;;;;;;;5030103;28;20030;-57
2021/05/04 02:09:32;;;;;;;4.80;2.60;;;;;;;;;;5029602;28;20025;-57
2021/05/04 02:11:59;;;;;;;6.27;2.70;;;;;;;;;;5033342;28;20022;-57
2021/05/04 02:14:26;;;;;;;16.77;3.37;;;;;;;;;;5015622;28;20506;-57
2021/05/04 02:16:53;;;;;;;4.67;2.60;;;;;;;;;;5033302;28;20082;-57
2021/05/04 02:19:19;;;;;;;9.10;3.30;;;;;;;;;;5033174;28;20022;-56
2021/05/04 02:21:46;;;;;;;5.53;2.83;;;;;;;;;;5033120;28;20025;-56
2021/05/04 02:24:13;;;;;;;8.77;3.43;;;;;;;;;;5033104;28;20083;-57
2021/05/04 02:26:40;;;;;;;7.53;3.73;;;;;;;;;;5033107;28;20278;-57
2021/05/04 02:29:06;;;;;;;4.93;2.83;;;;;;;;;;5032957;28;20428;-56
2021/05/04 02:31:33;;;;;;;4.33;2.50;;;;;;;;;;5032958;28;20365;-57
2021/05/04 02:34:00;;;;;;;5.23;2.80;;;;;;;;;;5032919;28;20364;-57
2021/05/04 02:36:27;;;;;;;5.47;2.37;;;;;;;;;;5032936;28;20025;-57
2021/05/04 02:38:53;;;;;;;3.90;2.53;;;;;;;;;;5032818;28;20032;-57
2021/05/04 02:41:20;;;;;;;4.73;2.77;;;;;;;;;;5032852;28;20029;-57
2021/05/04 02:43:47;;;;;;;5.13;2.93;;;;;;;;;;5032827;28;20570;-57
2021/05/04 02:46:14;;;;;;;4.27;2.60;;;;;;;;;;5032735;28;20072;-57
2021/05/04 02:48:42;;;;;;;6.80;3.07;;;;;;;;;;5032668;28;20033;-57
2021/05/04 02:51:10;;;;;;;5.70;3.33;;;;;;;;;;5032725;28;20429;-57
2021/05/04 02:53:37;;;;;;;6.60;2.90;;;;;;;;;;5032621;28;20053;-57
2021/05/04 02:56:05;;;;;;;9.33;3.03;;;;;;;;;;5032573;28;20048;-57
2021/05/04 02:58:32;;;;;;;8.87;2.47;;;;;;;;;;5032504;28;20029;-57
2021/05/04 03:00:59;;;;;;;9.07;2.60;;;;;;;;;;5035167;27;20053;-57
2021/05/04 03:03:26;;;;;;;4.97;2.60;;;;;;;;;;5032454;28;20022;-57
2021/05/04 03:05:53;;;;;;;6.07;2.30;;;;;;;;;;5032434;28;20028;-57
2021/05/04 03:08:20;;;;;;;4.97;2.50;;;;;;;;;;5032345;28;20082;-57
2021/05/04 03:10:47;;;;;;;5.83;2.50;;;;;;;;;;5014787;28;20552;-57
2021/05/04 03:13:14;;;;;;;4.53;2.37;;;;;;;;;;5032325;28;20024;-57
2021/05/04 03:15:40;;;;;;;5.37;2.30;;;;;;;;;;5032375;28;20502;-57
2021/05/04 03:18:07;;;;;;;7.77;2.40;;;;;;;;;;5032374;28;20434;-57
2021/05/04 03:20:34;;;;;;;4.63;2.30;;;;;;;;;;5031698;28;20025;-57
2021/05/04 03:23:01;;;;;;;8.50;2.80;;;;;;;;;;5032208;28;20566;-57
2021/05/04 03:25:28;;;;;;;6.77;2.47;;;;;;;;;;5032222;28;20017;-57
2021/05/04 03:27:57;;;;;;;8.67;2.67;;;;;;;;;;5032129;28;20058;-57
2021/05/04 03:30:25;;;;;;;7.90;2.63;;;;;;;;;;5032041;28;20555;-57
2021/05/04 03:32:51;;;;;;;5.43;3.20;;;;;;;;;;5032104;28;20034;-57
2021/05/04 03:35:19;;;;;;;7.70;2.80;;;;;;;;;;5032101;28;20029;-59
2021/05/04 03:37:46;;;;;;;7.60;2.60;;;;;;;;;;5031912;28;20066;-58
2021/05/04 03:40:13;;;;;;;8.17;2.80;;;;;;;;;;5014263;28;20022;-57
2021/05/04 03:42:40;;;;;;;5.23;2.57;;;;;;;;;;5031842;28;20034;-57
2021/05/04 03:45:08;;;;;;;8.33;3.10;;;;;;;;;;5031833;28;20026;-57
2021/05/04 03:47:36;;;;;;;4.30;2.43;;;;;;;;;;5031637;28;20025;-57
2021/05/04 03:50:04;;;;;;;5.43;2.83;;;;;;;;;;5031261;28;20044;-57
2021/05/04 03:52:31;;;;;;;5.57;2.83;;;;;;;;;;5031668;28;20053;-57
2021/05/04 03:54:57;;;;;;;5.13;2.90;;;;;;;;;;5031693;28;20083;-57
2021/05/04 03:57:24;;;;;;;6.57;2.63;;;;;;;;;;5031465;28;20029;-57
2021/05/04 03:59:51;;;;;;;6.17;3.03;;;;;;;;;;5034187;27;20882;-57
2021/05/04 04:02:18;;;;;;;10.77;2.97;;;;;;;;;;5031588;28;20029;-57
2021/05/04 04:04:45;;;;;;;5.20;2.80;;;;;;;;;;5031523;28;20173;-57
2021/05/04 04:07:12;;;;;;;5.83;2.90;;;;;;;;;;5031783;28;20030;-59
2021/05/04 04:09:39;;;;;;;5.20;2.70;;;;;;;;;;5031334;28;20447;-59
2021/05/04 04:12:06;;;;;;;5.83;2.80;;;;;;;;;;5031448;28;20036;-59
2021/05/04 04:14:32;;;;;;;5.20;2.33;;;;;;;;;;5031677;28;20030;-59
2021/05/04 04:16:59;;;;;;;6.33;2.90;;;;;;;;;;5031402;28;20449;-59
2021/05/04 04:19:26;;;;;;;8.13;3.47;;;;;;;;;;5031221;28;20117;-57
2021/05/04 04:21:53;;;;;;;6.60;2.67;;;;;;;;;;5031269;28;20022;-57
2021/05/04 04:24:20;;;;;;;5.47;2.70;;;;;;;;;;5031238;28;20035;-57
2021/05/04 04:26:46;;;;;;;4.43;2.33;;;;;;;;;;5031249;28;20033;-57
2021/05/04 04:29:13;;;;;;;6.80;2.17;;;;;;;;;;5031023;28;20034;-57
2021/05/04 04:31:41;;;;;;;5.30;2.90;;;;;;;;;;5031098;28;20538;-57
2021/05/04 04:34:09;;;;;;;6.27;2.70;;;;;;;;;;5030190;28;20025;-57
2021/05/04 04:36:35;;;;;;;6.40;3.20;;;;;;;;;;5031035;28;20468;-57
2021/05/04 04:39:02;;;;;;;5.17;2.83;;;;;;;;;;5030899;28;20030;-57
2021/05/04 04:41:44;;;;;;;6.73;3.50;;;;;;;;;;5030979;28;20109;-57
2021/05/04 04:44:11;;;;;;;10.57;2.90;;;;;;;;;;5030754;28;20073;-57
2021/05/04 04:46:41;;;;;;;7.37;3.03;;;;;;;;;;5030946;28;20021;-57
2021/05/04 04:49:12;;;;;;;8.53;2.90;;;;;;;;;;5030698;28;20037;-57
2021/05/04 04:51:39;;;;;;;8.60;2.73;;;;;;;;;;5030844;28;20125;-57
2021/05/04 04:54:06;;;;;;;9.77;2.60;;;;;;;;;;5030689;28;20046;-57
2021/05/04 04:56:34;;;;;;;7.30;3.70;;;;;;;;;;5030741;28;20483;-57
2021/05/04 04:59:01;;;;;;;10.80;3.57;;;;;;;;;;5030504;28;20025;-57
2021/05/04 05:01:27;;;;;;;6.43;3.40;;;;;;;;;;5033438;27;20392;-57
2021/05/04 05:03:54;;;;;;;10.47;3.17;;;;;;;;;;5030629;28;20017;-57
2021/05/04 05:06:21;;;;;;;5.00;2.70;;;;;;;;;;5030673;28;20034;-57
2021/05/04 05:08:52;;;;;;;9.27;3.70;;;;;;;;;;5030498;28;20464;-57
2021/05/04 05:11:19;;;;;;;5.37;2.67;;;;;;;;;;5030525;28;20036;-57
2021/05/04 05:13:47;;;;;;;8.47;3.80;;;;;;;;;;5030552;28;20498;-57
2021/05/04 05:16:15;;;;;;;5.37;3.17;;;;;;;;;;5030438;28;20079;-57
2021/05/04 05:18:42;;;;;;;8.03;3.40;;;;;;;;;;5030428;28;20298;-57
2021/05/04 05:21:10;;;;;;;7.77;3.23;;;;;;;;;;5030403;28;20497;-57
2021/05/04 05:23:37;;;;;;;8.13;4.00;;;;;;;;;;5030359;28;20032;-57
2021/05/04 05:26:05;;;;;;;7.77;3.40;;;;;;;;;;5030288;28;20032;-57
2021/05/04 05:28:32;;;;;;;7.53;3.93;;;;;;;;;;5030161;28;20471;-57
2021/05/04 05:30:59;;;;;;;8.03;3.27;;;;;;;;;;5030262;28;20029;-57
2021/05/04 05:33:25;;;;;;;6.90;3.07;;;;;;;;;;5030235;28;20033;-57
2021/05/04 05:35:52;;;;;;;7.23;4.03;;;;;;;;;;5030235;28;20617;-57
2021/05/04 05:38:19;;;;;;;8.57;3.30;;;;;;;;;;5030138;28;20021;-57
2021/05/04 05:40:46;;;;;;;11.33;3.87;;;;;;;;;;5030094;28;20116;-57
2021/05/04 05:43:13;;;;;;;6.70;3.33;;;;;;;;;;5030013;28;20022;-57
2021/05/04 05:45:39;;;;;;;7.77;2.63;;;;;;;;;;5029861;28;20033;-57
2021/05/04 05:48:06;;;;;;;7.03;3.33;;;;;;;;;;5029936;28;20098;-57
2021/05/04 05:50:33;;;;;;;7.27;3.37;;;;;;;;;;5029976;28;20029;-57
2021/05/04 05:53:00;;;;;;;6.20;2.97;;;;;;;;;;5030031;28;20026;-57
2021/05/04 05:55:27;;;;;;;6.43;2.90;;;;;;;;;;5029935;28;20487;-57
2021/05/04 05:57:54;;;;;;;5.70;2.90;;;;;;;;;;5029753;28;20484;-57
2021/05/04 06:00:21;;;;;;;4.57;2.70;;;;;;;;;;5032408;27;20069;-57
2021/05/04 06:02:48;;;;;;;8.83;3.13;;;;;;;;;;5029836;28;20472;-57
2021/05/04 06:05:15;;;;;;;7.37;2.93;;;;;;;;;;5029782;28;20057;-57
2021/05/04 06:07:42;;;;;;;6.20;2.80;;;;;;;;;;5029721;28;20029;-57
2021/05/04 06:10:09;;;;;;;5.00;2.73;;;;;;;;;;5029678;28;20060;-57
2021/05/04 06:12:36;;;;;;;8.23;2.80;;;;;;;;;;5029677;28;20026;-57
2021/05/04 06:15:03;;;;;;;5.53;2.60;;;;;;;;;;5029659;28;20034;-57
2021/05/04 06:17:30;;;;;;;3.73;2.23;;;;;;;;;;5029644;28;20489;-57
2021/05/04 06:19:57;;;;;;;4.67;2.50;;;;;;;;;;5029559;28;20029;-57
2021/05/04 06:22:24;;;;;;;4.53;2.40;;;;;;;;;;5029576;28;20104;-57
2021/05/04 06:24:50;;;;;;;4.03;2.70;;;;;;;;;;5029659;28;20095;-57
2021/05/04 06:27:17;;;;;;;7.10;2.90;;;;;;;;;;5029610;28;20123;-57
2021/05/04 06:29:45;;;;;;;7.53;3.00;;;;;;;;;;5011804;28;20063;-57
2021/05/04 06:32:14;;;;;;;6.83;3.20;;;;;;;;;;5011933;28;20095;-57
2021/05/04 06:34:41;;;;;;;4.80;2.67;;;;;;;;;;5029515;28;20383;-57
2021/05/04 06:37:08;;;;;;;4.93;3.13;;;;;;;;;;5029430;28;20032;-57
2021/05/04 06:39:35;;;;;;;8.23;3.00;;;;;;;;;;5029331;28;20026;-57
2021/05/04 06:42:01;;;;;;;6.63;2.70;;;;;;;;;;5029387;28;20418;-57
2021/05/04 06:44:28;;;;;;;5.70;2.90;;;;;;;;;;5029338;28;20029;-57
2021/05/04 06:46:55;;;;;;;4.80;2.50;;;;;;;;;;5029296;28;20026;-57
2021/05/04 06:49:22;;;;;;;10.20;2.93;;;;;;;;;;5029124;28;20061;-57
2021/05/04 06:51:49;;;;;;;6.83;3.10;;;;;;;;;;5029259;28;20025;-57
2021/05/04 06:54:15;;;;;;;4.43;2.83;;;;;;;;;;5029293;28;20040;-57
2021/05/04 06:56:42;;;;;;;7.00;2.70;;;;;;;;;;5030870;28;20020;-57
2021/05/04 06:59:09;;;;;;;5.93;2.70;;;;;;;;;;5032524;28;20108;-57
2021/05/04 07:01:36;;;;;;;3.87;2.30;;;;;;;;;;5035212;27;20542;-57
2021/05/04 07:04:02;;;;;;;4.13;2.23;;;;;;;;;;5032453;28;20026;-57
2021/05/04 07:06:29;;;;;;;4.63;2.37;;;;;;;;;;5032414;28;20021;-57
2021/05/04 07:08:56;;;;;;;5.20;2.80;;;;;;;;;;5032272;28;20177;-57
2021/05/04 07:11:23;;;;;;;6.27;2.60;;;;;;;;;;5032372;28;20033;-57
2021/05/04 07:13:49;;;;;;;6.00;2.37;;;;;;;;;;5032318;28;20104;-57
2021/05/04 07:16:16;;;;;;;4.70;2.40;;;;;;;;;;5032255;28;20376;-57
2021/05/04 07:18:43;;;;;;;7.80;2.77;;;;;;;;;;5032194;28;20030;-57
2021/05/04 07:21:10;;;;;;;4.63;2.53;;;;;;;;;;5032247;28;20030;-57
2021/05/04 07:23:37;;;;;;;4.07;2.37;;;;;;;;;;5032150;28;20030;-57
2021/05/04 07:26:04;;;;;;;3.07;1.80;;;;;;;;;;5032217;28;20379;-57
2021/05/04 07:28:31;;;;;;;7.07;2.20;;;;;;;;;;5032066;28;20034;-57
2021/05/04 07:30:59;;;;;;;4.40;2.20;;;;;;;;;;5032043;28;20061;-57
2021/05/04 07:33:26;;;;;;;6.67;2.20;;;;;;;;;;5032108;28;20425;-57
2021/05/04 07:35:53;;;;;;;4.20;2.17;;;;;;;;;;5032017;28;20029;-57
2021/05/04 07:38:20;;;;;;;6.87;2.30;;;;;;;;;;5031850;28;20026;-57
2021/05/04 07:40:46;;;;;;;4.77;2.50;;;;;;;;;;5031933;28;20037;-57
2021/05/04 07:43:13;;;;;;;5.07;2.40;;;;;;;;;;5031858;28;20057;-57
2021/05/04 07:45:40;;;;;;;5.63;2.53;;;;;;;;;;5031800;28;20029;-57
2021/05/04 07:48:10;;;;;;;4.27;2.53;;;;;;;;;;5031807;28;20388;-56
2021/05/04 07:50:37;;;;;;;5.53;2.13;;;;;;;;;;5031732;28;20116;-57
2021/05/04 07:53:04;;;;;;;6.07;2.70;;;;;;;;;;5031758;28;20123;-57
2021/05/04 07:55:31;;;;;;;5.73;2.63;;;;;;;;;;5031764;28;20112;-57
2021/05/04 07:57:58;;;;;;;3.90;2.07;;;;;;;;;;5031596;28;20022;-57
2021/05/04 08:00:25;;;;;;;4.83;2.30;;;;;;;;;;5034420;27;20056;-57
2021/05/04 08:02:52;;;;;;;5.63;2.90;;;;;;;;;;5031660;28;20104;-57
2021/05/04 08:05:19;;;;;;;4.53;2.43;;;;;;;;;;5031513;28;20472;-57
2021/05/04 08:07:46;;;;;;;6.00;3.00;;;;;;;;;;5031467;28;20025;-57
2021/05/04 08:10:13;;;;;;;6.67;2.40;;;;;;;;;;5031234;28;20065;-56
2021/05/04 08:12:39;;;;;;;5.07;2.50;;;;;;;;;;5031438;28;20279;-57
2021/05/04 08:15:12;;;;;;;5.83;2.87;;;;;;;;;;5031691;28;20113;-57
2021/05/04 08:17:40;;;;;;;5.67;2.77;;;;;;;;;;5031266;28;20025;-56
2021/05/04 08:20:07;;;;;;;9.27;2.90;;;;;;;;;;5031194;28;20026;-56
2021/05/04 08:22:35;;;;;;;5.53;2.67;;;;;;;;;;5031285;28;20026;-56
2021/05/04 08:25:03;;;;;;;5.53;2.97;;;;;;;;;;5031211;28;20490;-57
2021/05/04 08:27:29;;;;;;;6.07;2.40;;;;;;;;;;5031279;28;20635;-56
2021/05/04 08:29:56;;;;;;;4.73;2.60;;;;;;;;;;5031029;28;20037;-56
2021/05/04 08:32:23;;;;;;;4.93;2.90;;;;;;;;;;5031128;28;20045;-56
2021/05/04 08:34:50;;;;;;;4.43;2.60;;;;;;;;;;5031141;28;20116;-56
2021/05/04 08:37:17;;;;;;;4.77;2.47;;;;;;;;;;5031382;28;20030;-56
2021/05/04 08:39:43;;;;;;;5.57;2.40;;;;;;;;;;5030908;28;20078;-56
2021/05/04 08:42:10;;;;;;;5.33;2.57;;;;;;;;;;5031009;28;20022;-56
2021/05/04 08:44:38;;;;;;;4.30;2.77;;;;;;;;;;5030942;28;20059;-56
2021/05/04 08:47:05;;;;;;;4.57;2.80;;;;;;;;;;5030926;28;20025;-56
2021/05/04 08:49:33;;;;;;;6.00;2.93;;;;;;;;;;5030692;28;20033;-56
2021/05/04 08:52:00;;;;;;;6.30;2.40;;;;;;;;;;5030806;28;20483;-56
2021/05/04 08:54:27;;;;;;;4.43;2.60;;;;;;;;;;5030730;28;20032;-56
2021/05/04 08:56:54;;;;;;;7.37;2.80;;;;;;;;;;5030709;28;20025;-56
2021/05/04 08:59:20;;;;;;;5.20;2.80;;;;;;;;;;5030522;28;20025;-56
2021/05/04 09:01:47;;;;;;;5.23;2.83;;;;;;;;;;5033447;27;20516;-57
2021/05/04 09:04:30;;;;;;;9.17;2.90;;;;;;;;;;5030629;28;20025;-56
2021/05/04 09:07:12;;;;;;;5.13;2.23;;;;;;;;;;5030617;28;20026;-56
2021/05/04 09:10:00;;;;;;;4.47;2.47;;;;;;;;;;5030511;28;20038;-56
2021/05/04 09:12:39;;;;;;;4.33;2.50;;;;;;;;;;5030528;28;20368;-56
2021/05/04 09:15:27;;;;;;;6.30;2.87;;;;;;;;;;5030451;28;20029;-56
2021/05/04 09:17:54;;;;;;;5.60;2.70;;;;;;;;;;5030280;28;20067;-56
2021/05/04 09:22:47;;;;;;;4.80;2.60;;;;;;;;;;5030337;28;20037;-56
2021/05/04 09:25:29;;;;;;;4.97;2.30;;;;;;;;;;5030291;28;20100;-56
2021/05/04 09:28:14;;;;;;;4.30;2.90;;;;;;;;;;5030273;28;20029;-56
2021/05/04 09:30:41;;;;;;;4.60;2.60;;;;;;;;;;5030341;28;20048;-56
2021/05/04 09:33:11;;;;;;;5.23;2.43;;;;;;;;;;5030240;28;20013;-56
2021/05/04 09:35:38;;;;;;;4.53;2.53;;;;;;;;;;5030121;28;20096;-56
2021/05/04 09:38:09;;;;;;;4.90;2.60;;;;;;;;;;5030107;28;20021;-56
2021/05/04 09:40:37;;;;;;;4.43;2.33;;;;;;;;;;5030169;28;20029;-56
2021/05/04 09:43:14;;;;;;;4.60;2.97;;;;;;;;;;5030168;28;20038;-56
2021/05/04 09:45:44;;;;;;;4.83;2.73;;;;;;;;;;5030039;28;20029;-56
2021/05/04 09:48:16;;;;;;;4.30;2.60;;;;;;;;;;5029963;28;20033;-56
2021/05/04 09:50:47;;;;;;;5.03;2.60;;;;;;;;;;5030310;28;20426;-57
2021/05/04 09:53:16;;;;;;;4.60;2.50;;;;;;;;;;5029922;28;20030;-58
2021/05/04 09:56:09;;;;;;;6.27;2.80;;;;;;;;;;5029970;28;20036;-56
2021/05/04 09:58:40;;;;;;;5.53;2.80;;;;;;;;;;5029551;28;20049;-56
2021/05/04 10:01:08;;;;;;;4.37;2.50;;;;;;;;;;5032626;27;20348;-56
2021/05/04 10:03:35;;;;;;;5.13;3.13;;;;;;;;;;5029918;28;20036;-56
2021/05/04 10:06:03;;;;;;;4.17;2.50;;;;;;;;;;5029814;28;20034;-56
2021/05/04 10:08:32;;;;;;;5.97;2.33;;;;;;;;;;5029657;28;20384;-56
2021/05/04 10:11:00;;;;;;;6.27;2.73;;;;;;;;;;5029789;28;20025;-56
2021/05/04 10:13:28;;;;;;;4.47;2.60;;;;;;;;;;5029817;28;20490;-56
2021/05/04 10:15:56;;;;;;;10.70;3.50;;;;;;;;;;5029973;28;20515;-56
2021/05/04 10:18:24;;;;;;;4.50;2.87;;;;;;;;;;5029893;28;20100;-56
2021/05/04 10:20:52;;;;;;;8.40;3.53;;;;;;;;;;5029542;28;20036;-56
2021/05/04 10:23:19;;;;;;;5.70;3.40;;;;;;;;;;5029545;28;20026;-56
2021/05/04 10:25:46;;;;;;;6.17;3.33;;;;;;;;;;5029810;28;20297;-56
2021/05/04 10:28:13;;;;;;;4.70;2.90;;;;;;;;;;5029438;28;20468;-56
2021/05/04 10:30:40;;;;;;;7.43;3.60;;;;;;;;;;5029707;28;20753;-56
2021/05/04 10:33:09;;;;;;;6.30;3.40;;;;;;;;;;5033019;28;20261;-56
2021/05/04 10:35:38;;;;;;;3.93;2.47;;;;;;;;;;5033242;28;20654;-56
2021/05/04 10:38:12;;;;;;;4.93;2.90;;;;;;;;;;5032941;28;20267;-56
2021/05/04 10:40:41;;;;;;;6.03;2.80;;;;;;;;;;5032991;28;20446;-56
2021/05/04 10:43:23;;;;;;;5.33;2.90;;;;;;;;;;5033134;28;20255;-56
2021/05/04 10:45:50;;;;;;;7.27;3.53;;;;;;;;;;5032772;28;20282;-56
2021/05/04 10:48:18;;;;;;;5.60;2.70;;;;;;;;;;5015256;28;20402;-56
2021/05/04 10:50:52;;;;;;;5.43;3.10;;;;;;;;;;5032708;28;20266;-56
2021/05/04 10:53:20;;;;;;;6.57;3.20;;;;;;;;;;5032643;28;20578;-56
2021/05/04 10:55:53;;;;;;;6.60;3.33;;;;;;;;;;5032591;28;20428;-56
2021/05/04 10:58:21;;;;;;;5.17;3.00;;;;;;;;;;5032450;28;20764;-56
2021/05/04 11:00:50;;;;;;;6.73;3.30;;;;;;;;;;5036119;27;20290;-56
2021/05/04 11:03:32;;;;;;;10.70;3.23;;;;;;;;;;5032853;28;20250;-56
2021/05/04 11:06:03;;;;;;;5.60;2.73;;;;;;;;;;5032500;28;20274;-56
2021/05/04 11:08:47;;;;;;;5.13;3.40;;;;;;;;;;5032277;28;20280;-56
2021/05/04 11:11:30;;;;;;;5.93;2.43;;;;;;;;;;5032365;28;20290;-56
2021/05/04 11:13:58;;;;;;;5.13;2.87;;;;;;;;;;5032462;28;20262;-56
2021/05/04 11:16:41;;;;;;;7.40;3.10;;;;;;;;;;5032306;28;20307;-56
2021/05/04 11:19:08;;;;;;;5.33;3.07;;;;;;;;;;5032293;28;20254;-56
2021/05/04 11:21:39;;;;;;;6.73;2.77;;;;;;;;;;5032525;28;20255;-56
2021/05/04 11:24:06;;;;;;;9.40;4.03;;;;;;;;;;5032180;28;20259;-56
2021/05/04 11:27:02;;;;;;;6.87;4.37;;;;;;;;;;5032168;28;20836;-56
2021/05/04 11:29:32;;;;;;;5.30;3.22;;;;;;;;;;5031907;28;20298;-56
2021/05/04 11:32:10;;;;;;;6.40;3.13;;;;;;;;;;5032041;28;20070;-56
2021/05/04 11:34:40;;;;;;;6.87;3.37;;;;;;;;;;5031981;28;20294;-56
2021/05/04 11:37:11;;;;;;;26.97;14.37;;;;;;;;;;5031954;28;20262;-56
2021/05/04 11:39:55;;;;;;;14.13;8.87;;;;;;;;;;5031879;28;20263;-56
2021/05/04 11:42:32;;;;;;;9.73;5.10;;;;;;;;;;5031628;28;20254;-56
2021/05/04 11:45:06;;;;;;;6.23;4.10;;;;;;;;;;5031930;28;20262;-56
2021/05/04 11:47:33;;;;;;;8.85;3.80;;;;;;;;;;5031921;28;20768;-56
2021/05/04 11:50:06;;;;;;;9.63;4.50;;;;;;;;;;5031693;28;20033;-56
2021/05/04 11:52:34;;;;;;;6.67;3.57;;;;;;;;;;5031771;28;20282;-56
2021/05/04 11:55:23;;;;;;;6.97;3.53;;;;;;;;;;5031700;28;20246;-56
2021/05/04 11:57:55;;;;;;;8.03;3.60;;;;;;;;;;5031469;28;20354;-56
2021/05/04 12:00:23;;;;;;;8.03;3.90;;;;;;;;;;5034268;27;20582;-56
2021/05/04 12:02:50;;;;;;;7.57;3.63;;;;;;;;;;5031604;28;20262;-56
2021/05/04 12:05:27;;;;;;;10.80;4.07;;;;;;;;;;5031520;28;20262;-56
2021/05/04 12:07:54;;;;;;;12.70;3.43;;;;;;;;;;5031513;28;20250;-56
2021/05/04 12:10:23;;;;;;;6.23;3.10;;;;;;;;;;5031399;28;20377;-56
2021/05/04 12:12:51;;;;;;;9.63;3.50;;;;;;;;;;5031405;28;20747;-56
2021/05/04 12:15:19;;;;;;;6.63;3.80;;;;;;;;;;5031396;28;20257;-56
2021/05/04 12:17:55;;;;;;;12.77;4.00;;;;;;;;;;5031345;28;20308;-57
2021/05/04 12:20:23;;;;;;;8.27;4.60;;;;;;;;;;5031311;28;20265;-57
2021/05/04 12:22:51;;;;;;;6.87;3.50;;;;;;;;;;5031878;28;20258;-57
2021/05/04 12:25:21;;;;;;;7.00;4.07;;;;;;;;;;5031171;28;20262;-57
2021/05/04 12:27:48;;;;;;;11.93;3.80;;;;;;;;;;5031175;28;20672;-57
2021/05/04 12:30:19;;;;;;;7.67;3.30;;;;;;;;;;5031152;28;20283;-57
2021/05/04 12:32:47;;;;;;;5.53;3.43;;;;;;;;;;5031109;28;20266;-57
2021/05/04 12:35:29;;;;;;;5.57;3.63;;;;;;;;;;5031074;28;20251;-57
2021/05/04 12:38:12;;;;;;;5.13;3.23;;;;;;;;;;5031309;28;20254;-57
2021/05/04 12:40:41;;;;;;;6.17;3.83;;;;;;;;;;5031035;28;20338;-57
2021/05/04 12:43:20;;;;;;;7.33;3.27;;;;;;;;;;5030995;28;20259;-57
2021/05/04 12:45:59;;;;;;;7.87;3.47;;;;;;;;;;5030958;28;20261;-57
2021/05/04 12:48:26;;;;;;;8.33;3.47;;;;;;;;;;5030788;28;20333;-57
2021/05/04 12:51:01;;;;;;;7.07;3.70;;;;;;;;;;5030934;28;20324;-57
2021/05/04 12:53:32;;;;;;;8.55;4.18;;;;;;;;;;5030143;28;20258;-57
2021/05/04 12:56:00;;;;;;;9.20;4.20;;;;;;;;;;5030821;28;20027;-57
2021/05/04 12:58:27;;;;;;;6.30;3.90;;;;;;;;;;5030607;28;20257;-57
2021/05/04 13:01:10;;;;;;;8.60;4.00;;;;;;;;;;5033455;27;20291;-57
2021/05/04 13:03:47;;;;;;;10.33;4.73;;;;;;;;;;5030640;28;20247;-57
2021/05/04 13:06:27;;;;;;;7.97;4.80;;;;;;;;;;5030597;28;20338;-57
2021/05/04 13:08:59;;;;;;;8.27;5.40;;;;;;;;;;5030486;28;20432;-57
2021/05/04 13:11:53;;;;;;;7.03;5.03;;;;;;;;;;5030503;28;20312;-57
2021/05/04 13:30:45;;;;;;;14.00;7.20;;;;;;;;;;5030483;28;20480;-58
2021/05/04 13:33:15;;;;;;;13.03;7.17;;;;;;;;;;5030613;28;20379;-58
2021/05/04 13:35:55;;;;;;;17.20;7.97;;;;;;;;;;5030209;28;20041;-58
2021/05/04 13:49:36;;;;;;;19.73;10.87;;;;;;;;;;5029957;28;19920;-58
2021/05/04 13:52:02;;;;;;;18.33;9.40;;;;;;;;;;5029950;28;20033;-58
2021/05/04 13:54:29;;;;;;;16.83;10.17;;;;;;;;;;5030543;28;20029;-58
2021/05/04 13:56:56;;;;;;;13.37;8.63;;;;;;;;;;5029912;28;20053;-58
2021/05/04 13:59:23;;;;;;;16.40;8.33;;;;;;;;;;5029702;28;20030;-58
2021/05/04 14:01:59;;;;;;;14.57;6.80;;;;;;;;;;5032639;27;20071;-58
2021/05/04 14:14:25;;;;;;;10.80;7.23;;;;;;;;;;5033189;28;20124;-58
2021/05/04 14:28:05;;;;;;;;;;;;;;;;;;5033487;28;19950;-58
2021/05/04 14:30:32;;;;;;;;;;;;;;;;;;5033448;28;19935;-59
2021/05/04 14:32:58;;;;;;;;;;;;;;;;;;5033527;28;19905;-59
2021/05/04 14:35:34;;;;;;;;;;;;;;;;;;5015901;28;19908;-59
2021/05/04 14:59:24;;;;;;;;;;;;;;;;;;5032917;28;19912;-59
2021/05/04 15:01:50;;;;;;;;;;;;;;;;;;5036528;27;19917;-59
2021/05/04 15:04:17;;;;;;;;;;;;;;;;;;5033080;28;19992;-59
2021/05/04 15:06:43;;;;;;;;;;;;;;;;;;5032937;28;19996;-59
2021/05/04 15:09:10;;;;;;;;;;;;;;;;;;5032787;28;19909;-59
2021/05/04 15:11:37;;;;;;;;;;;;;;;;;;5015177;28;20384;-59
2021/05/04 15:14:05;;;;;;;;;;;;;;;;;;5032820;28;19905;-59
2021/05/04 15:16:38;;;;;;;;;;;;;;;;;;5032075;28;19916;-59
2021/05/04 15:22:00;;;;;;;;;;;;;;;;;;5032706;28;19912;-59
2021/05/04 15:24:26;;;;;;;;;;;;;;;;;;5032656;28;19909;-59
2021/05/04 15:26:53;;;;;;;;;;;;;;;;;;5032639;28;19948;-59
2021/05/04 15:29:19;;;;;;;;;;;;;;;;;;5032429;28;19919;-59
2021/05/04 15:31:51;;;;;;;;;;;;;;;;;;5032655;28;20034;-59
2021/05/04 15:34:17;;;;;;;;;;;;;;;;;;5032521;28;19912;-59
2021/05/04 15:36:44;;;;;;;;;;;;;;;;;;5032456;28;19905;-59
2021/05/04 15:39:10;;;;;;;;;;;;;;;;;;5032422;28;19905;-59
2021/05/04 15:41:37;;;;;;;;;;;;;;;;;;5032434;28;20316;-59
2021/05/04 15:44:03;;;;;;;;;;;;;;;;;;5032316;28;19905;-59
2021/05/04 15:46:56;;;;;;;;;;;;;;;;;;5032312;28;20350;-59
2021/05/04 15:51:57;;;;;;;;;;;;;;;;;;5032138;28;19911;-59
2021/05/04 16:08:07;;;;;;;;;;;;;;;;;;5031969;28;19930;-59
2021/05/04 16:10:33;;;;;;;;;;;;;;;;;;5032183;28;19935;-59
2021/05/04 16:13:01;;;;;;;;;;;;;;;;;;5031994;28;19989;-59
2021/05/04 16:15:27;;;;;;;;;;;;;;;;;;5031879;28;19912;-59
2021/05/04 16:17:54;;;;;;;;;;;;;;;;;;5031903;28;19909;-59
2021/05/04 16:23:14;;;;;;;;;;;;;;;;;;5031861;28;20473;-59
2021/05/04 16:28:43;;;;;;;;;;;;;;;;;;5030602;28;20274;-59
2021/05/04 16:31:09;;;;;;;;;;;;;;;;;;5031727;28;19913;-59
2021/05/04 16:33:36;;;;;;;;;;;;;;;;;;5032000;28;19915;-60
2021/05/04 16:36:02;;;;;;;;;;;;;;;;;;5031492;28;20283;-59
2021/05/04 16:38:28;;;;;;;;;;;;;;;;;;5031501;28;19950;-59
2021/05/04 16:40:54;;;;;;;;;;;;;;;;;;5031524;28;20000;-59